sensor_id;sensor_type;location;lat;lon;timestamp;P1;durP1;ratioP1;P2;durP2;ratioP2
4186;SDS011;2107;52.306;10.484;2023-07-13T00:00:41;0.50;;;0.50;;
4186;SDS011;2107;52.306;10.484;2023-07-13T00:03:08;0.40;;;0.40;;
4186;SDS011;2107;52.306;10.484;2023-07-13T00:05:38;0.40;;;0.40;;
4186;SDS011;2107;52.306;10.484;2023-07-13T00:08:05;0.30;;;0.30;;
4186;SDS011;2107;52.306;10.484;2023-07-13T00:10:33;0.30;;;0.30;;
4186;SDS011;2107;52.306;10.484;2023-07-13T00:13:00;0.30;;;0.30;;
4186;SDS011;2107;52.306;10.484;2023-07-13T00:15:28;0.30;;;0.30;;
4186;SDS011;2107;52.306;10.484;2023-07-13T00:17:56;0.30;;;0.30;;
4186;SDS011;2107;52.306;10.484;2023-07-13T00:20:26;0.20;;;0.20;;
4186;SDS011;2107;52.306;10.484;2023-07-13T00:22:52;0.20;;;0.20;;
4186;SDS011;2107;52.306;10.484;2023-07-13T00:25:19;0.30;;;0.30;;
4186;SDS011;2107;52.306;10.484;2023-07-13T00:27:49;0.20;;;0.20;;
4186;SDS011;2107;52.306;10.484;2023-07-13T00:30:17;0.20;;;0.20;;
4186;SDS011;2107;52.306;10.484;2023-07-13T00:32:45;0.20;;;0.20;;
4186;SDS011;2107;52.306;10.484;2023-07-13T00:35:12;0.20;;;0.20;;
4186;SDS011;2107;52.306;10.484;2023-07-13T00:37:40;0.13;;;0.13;;
4186;SDS011;2107;52.306;10.484;2023-07-13T00:40:08;0.20;;;0.20;;
4186;SDS011;2107;52.306;10.484;2023-07-13T00:42:37;0.20;;;0.20;;
4186;SDS011;2107;52.306;10.484;2023-07-13T00:45:05;0.10;;;0.10;;
4186;SDS011;2107;52.306;10.484;2023-07-13T00:47:54;0.10;;;0.10;;
4186;SDS011;2107;52.306;10.484;2023-07-13T00:50:22;0.10;;;0.10;;
4186;SDS011;2107;52.306;10.484;2023-07-13T00:52:50;0.10;;;0.10;;
4186;SDS011;2107;52.306;10.484;2023-07-13T00:55:23;0.20;;;0.20;;
4186;SDS011;2107;52.306;10.484;2023-07-13T00:57:50;0.10;;;0.10;;
4186;SDS011;2107;52.306;10.484;2023-07-13T01:00:17;0.10;;;0.10;;
4186;SDS011;2107;52.306;10.484;2023-07-13T01:02:46;0.10;;;0.10;;
4186;SDS011;2107;52.306;10.484;2023-07-13T01:05:16;0.10;;;0.10;;
4186;SDS011;2107;52.306;10.484;2023-07-13T01:07:45;0.10;;;0.10;;
4186;SDS011;2107;52.306;10.484;2023-07-13T01:10:15;0.10;;;0.10;;
4186;SDS011;2107;52.306;10.484;2023-07-13T01:12:42;0.10;;;0.10;;
4186;SDS011;2107;52.306;10.484;2023-07-13T01:18:01;0.10;;;0.10;;
4186;SDS011;2107;52.306;10.484;2023-07-13T01:20:31;0.20;;;0.20;;
4186;SDS011;2107;52.306;10.484;2023-07-13T01:23:02;0.10;;;0.10;;
4186;SDS011;2107;52.306;10.484;2023-07-13T01:25:31;0.10;;;0.10;;
4186;SDS011;2107;52.306;10.484;2023-07-13T01:27:58;0.10;;;0.10;;
4186;SDS011;2107;52.306;10.484;2023-07-13T01:30:25;0.10;;;0.10;;
4186;SDS011;2107;52.306;10.484;2023-07-13T01:32:52;0.10;;;0.10;;
4186;SDS011;2107;52.306;10.484;2023-07-13T01:35:19;0.10;;;0.10;;
4186;SDS011;2107;52.306;10.484;2023-07-13T01:37:46;0.10;;;0.10;;
4186;SDS011;2107;52.306;10.484;2023-07-13T01:40:14;0.10;;;0.10;;
4186;SDS011;2107;52.306;10.484;2023-07-13T01:42:41;0.10;;;0.10;;
4186;SDS011;2107;52.306;10.484;2023-07-13T01:45:08;0.10;;;0.10;;
4186;SDS011;2107;52.306;10.484;2023-07-13T01:47:35;0.10;;;0.10;;
4186;SDS011;2107;52.306;10.484;2023-07-13T01:50:02;0.10;;;0.10;;
4186;SDS011;2107;52.306;10.484;2023-07-13T01:52:29;0.10;;;0.10;;
4186;SDS011;2107;52.306;10.484;2023-07-13T01:54:56;0.10;;;0.10;;
4186;SDS011;2107;52.306;10.484;2023-07-13T01:57:24;0.10;;;0.10;;
4186;SDS011;2107;52.306;10.484;2023-07-13T01:59:51;0.00;;;0.00;;
4186;SDS011;2107;52.306;10.484;2023-07-13T02:02:18;0.00;;;0.00;;
4186;SDS011;2107;52.306;10.484;2023-07-13T02:04:45;0.00;;;0.00;;
4186;SDS011;2107;52.306;10.484;2023-07-13T02:07:12;0.00;;;0.00;;
4186;SDS011;2107;52.306;10.484;2023-07-13T02:09:40;0.00;;;0.00;;
4186;SDS011;2107;52.306;10.484;2023-07-13T02:12:07;0.00;;;0.00;;
4186;SDS011;2107;52.306;10.484;2023-07-13T02:14:35;0.10;;;0.10;;
4186;SDS011;2107;52.306;10.484;2023-07-13T02:17:03;0.00;;;0.00;;
4186;SDS011;2107;52.306;10.484;2023-07-13T02:19:30;0.00;;;0.00;;
4186;SDS011;2107;52.306;10.484;2023-07-13T02:21:57;0.00;;;0.00;;
4186;SDS011;2107;52.306;10.484;2023-07-13T02:24:24;0.00;;;0.00;;
4186;SDS011;2107;52.306;10.484;2023-07-13T02:26:51;0.00;;;0.00;;
4186;SDS011;2107;52.306;10.484;2023-07-13T02:29:18;0.00;;;0.00;;
4186;SDS011;2107;52.306;10.484;2023-07-13T02:31:46;0.00;;;0.00;;
4186;SDS011;2107;52.306;10.484;2023-07-13T02:34:13;0.00;;;0.00;;
4186;SDS011;2107;52.306;10.484;2023-07-13T02:36:40;0.00;;;0.00;;
4186;SDS011;2107;52.306;10.484;2023-07-13T02:39:07;0.00;;;0.00;;
4186;SDS011;2107;52.306;10.484;2023-07-13T02:41:35;0.00;;;0.00;;
4186;SDS011;2107;52.306;10.484;2023-07-13T02:44:02;0.00;;;0.00;;
4186;SDS011;2107;52.306;10.484;2023-07-13T02:46:29;0.00;;;0.00;;
4186;SDS011;2107;52.306;10.484;2023-07-13T02:48:57;0.00;;;0.00;;
4186;SDS011;2107;52.306;10.484;2023-07-13T02:51:24;0.00;;;0.00;;
4186;SDS011;2107;52.306;10.484;2023-07-13T02:53:52;0.00;;;0.00;;
4186;SDS011;2107;52.306;10.484;2023-07-13T02:56:22;0.00;;;0.00;;
4186;SDS011;2107;52.306;10.484;2023-07-13T02:58:50;0.00;;;0.00;;
4186;SDS011;2107;52.306;10.484;2023-07-13T03:01:17;0.00;;;0.00;;
4186;SDS011;2107;52.306;10.484;2023-07-13T03:03:44;0.00;;;0.00;;
4186;SDS011;2107;52.306;10.484;2023-07-13T03:06:13;0.00;;;0.00;;
4186;SDS011;2107;52.306;10.484;2023-07-13T03:08:40;0.00;;;0.00;;
4186;SDS011;2107;52.306;10.484;2023-07-13T03:11:09;0.00;;;0.00;;
4186;SDS011;2107;52.306;10.484;2023-07-13T03:13:41;0.00;;;0.00;;
4186;SDS011;2107;52.306;10.484;2023-07-13T03:16:08;0.00;;;0.00;;
4186;SDS011;2107;52.306;10.484;2023-07-13T03:18:37;0.00;;;0.00;;
4186;SDS011;2107;52.306;10.484;2023-07-13T03:21:04;0.10;;;0.10;;
4186;SDS011;2107;52.306;10.484;2023-07-13T03:23:33;0.00;;;0.00;;
4186;SDS011;2107;52.306;10.484;2023-07-13T03:26:01;0.00;;;0.00;;
4186;SDS011;2107;52.306;10.484;2023-07-13T03:28:28;0.00;;;0.00;;
4186;SDS011;2107;52.306;10.484;2023-07-13T03:31:02;0.10;;;0.10;;
4186;SDS011;2107;52.306;10.484;2023-07-13T03:33:30;0.00;;;0.00;;
4186;SDS011;2107;52.306;10.484;2023-07-13T03:35:57;0.10;;;0.10;;
4186;SDS011;2107;52.306;10.484;2023-07-13T03:38:25;0.10;;;0.10;;
4186;SDS011;2107;52.306;10.484;2023-07-13T03:40:53;0.10;;;0.10;;
4186;SDS011;2107;52.306;10.484;2023-07-13T03:43:20;0.10;;;0.10;;
4186;SDS011;2107;52.306;10.484;2023-07-13T03:45:47;0.10;;;0.10;;
4186;SDS011;2107;52.306;10.484;2023-07-13T03:48:14;0.10;;;0.10;;
4186;SDS011;2107;52.306;10.484;2023-07-13T03:50:41;0.10;;;0.10;;
4186;SDS011;2107;52.306;10.484;2023-07-13T03:53:08;0.10;;;0.10;;
4186;SDS011;2107;52.306;10.484;2023-07-13T03:55:36;0.10;;;0.10;;
4186;SDS011;2107;52.306;10.484;2023-07-13T03:58:25;0.30;;;0.30;;
4186;SDS011;2107;52.306;10.484;2023-07-13T04:00:54;0.30;;;0.30;;
4186;SDS011;2107;52.306;10.484;2023-07-13T04:03:22;0.40;;;0.40;;
4186;SDS011;2107;52.306;10.484;2023-07-13T04:05:49;0.50;;;0.50;;
4186;SDS011;2107;52.306;10.484;2023-07-13T04:08:16;0.80;;;0.80;;
4186;SDS011;2107;52.306;10.484;2023-07-13T04:10:43;0.90;;;0.90;;
4186;SDS011;2107;52.306;10.484;2023-07-13T04:13:10;1.10;;;1.10;;
4186;SDS011;2107;52.306;10.484;2023-07-13T04:15:39;0.80;;;0.80;;
4186;SDS011;2107;52.306;10.484;2023-07-13T04:18:06;1.20;;;1.20;;
4186;SDS011;2107;52.306;10.484;2023-07-13T04:20:33;0.70;;;0.70;;
4186;SDS011;2107;52.306;10.484;2023-07-13T04:23:00;0.70;;;0.70;;
4186;SDS011;2107;52.306;10.484;2023-07-13T04:25:27;0.70;;;0.70;;
4186;SDS011;2107;52.306;10.484;2023-07-13T04:27:54;0.87;;;0.87;;
4186;SDS011;2107;52.306;10.484;2023-07-13T04:30:21;0.80;;;0.80;;
4186;SDS011;2107;52.306;10.484;2023-07-13T04:32:50;0.70;;;0.70;;
4186;SDS011;2107;52.306;10.484;2023-07-13T04:35:18;0.60;;;0.60;;
4186;SDS011;2107;52.306;10.484;2023-07-13T04:37:45;0.80;;;0.80;;
4186;SDS011;2107;52.306;10.484;2023-07-13T04:40:13;0.50;;;0.50;;
4186;SDS011;2107;52.306;10.484;2023-07-13T04:42:40;0.50;;;0.50;;
4186;SDS011;2107;52.306;10.484;2023-07-13T04:45:07;0.90;;;0.90;;
4186;SDS011;2107;52.306;10.484;2023-07-13T04:47:34;0.80;;;0.80;;
4186;SDS011;2107;52.306;10.484;2023-07-13T04:50:03;1.00;;;1.00;;
4186;SDS011;2107;52.306;10.484;2023-07-13T04:52:30;1.10;;;1.10;;
4186;SDS011;2107;52.306;10.484;2023-07-13T04:54:58;0.90;;;0.90;;
4186;SDS011;2107;52.306;10.484;2023-07-13T04:57:25;1.10;;;1.10;;
4186;SDS011;2107;52.306;10.484;2023-07-13T04:59:52;0.80;;;0.80;;
4186;SDS011;2107;52.306;10.484;2023-07-13T05:02:20;1.00;;;1.00;;
4186;SDS011;2107;52.306;10.484;2023-07-13T05:04:47;0.80;;;0.80;;
4186;SDS011;2107;52.306;10.484;2023-07-13T05:07:16;1.13;;;1.13;;
4186;SDS011;2107;52.306;10.484;2023-07-13T05:09:43;0.80;;;0.80;;
4186;SDS011;2107;52.306;10.484;2023-07-13T05:12:09;1.20;;;1.20;;
4186;SDS011;2107;52.306;10.484;2023-07-13T05:14:36;0.90;;;0.90;;
4186;SDS011;2107;52.306;10.484;2023-07-13T05:19:28;0.80;;;0.80;;
4186;SDS011;2107;52.306;10.484;2023-07-13T05:21:56;0.70;;;0.70;;
4186;SDS011;2107;52.306;10.484;2023-07-13T05:24:24;0.90;;;0.90;;
4186;SDS011;2107;52.306;10.484;2023-07-13T05:26:51;1.00;;;1.00;;
4186;SDS011;2107;52.306;10.484;2023-07-13T05:29:20;1.00;;;1.00;;
4186;SDS011;2107;52.306;10.484;2023-07-13T05:31:48;1.10;;;1.10;;
4186;SDS011;2107;52.306;10.484;2023-07-13T05:34:15;1.40;;;1.40;;
4186;SDS011;2107;52.306;10.484;2023-07-13T05:36:42;1.10;;;1.10;;
4186;SDS011;2107;52.306;10.484;2023-07-13T05:39:09;1.40;;;1.40;;
4186;SDS011;2107;52.306;10.484;2023-07-13T05:41:38;1.00;;;1.00;;
4186;SDS011;2107;52.306;10.484;2023-07-13T05:44:04;1.10;;;1.10;;
4186;SDS011;2107;52.306;10.484;2023-07-13T05:46:31;0.90;;;0.90;;
4186;SDS011;2107;52.306;10.484;2023-07-13T05:48:58;0.90;;;0.90;;
4186;SDS011;2107;52.306;10.484;2023-07-13T05:51:25;1.10;;;1.10;;
4186;SDS011;2107;52.306;10.484;2023-07-13T05:53:52;1.20;;;1.20;;
4186;SDS011;2107;52.306;10.484;2023-07-13T05:56:19;1.30;;;1.30;;
4186;SDS011;2107;52.306;10.484;2023-07-13T05:58:47;1.33;;;1.33;;
4186;SDS011;2107;52.306;10.484;2023-07-13T06:01:14;1.90;;;1.90;;
4186;SDS011;2107;52.306;10.484;2023-07-13T06:03:42;1.70;;;1.70;;
4186;SDS011;2107;52.306;10.484;2023-07-13T06:06:09;1.50;;;1.50;;
4186;SDS011;2107;52.306;10.484;2023-07-13T06:08:37;1.10;;;1.10;;
4186;SDS011;2107;52.306;10.484;2023-07-13T06:11:04;1.40;;;1.40;;
4186;SDS011;2107;52.306;10.484;2023-07-13T06:13:32;1.20;;;1.20;;
4186;SDS011;2107;52.306;10.484;2023-07-13T06:16:01;1.00;;;1.00;;
4186;SDS011;2107;52.306;10.484;2023-07-13T06:18:30;1.17;;;1.17;;
4186;SDS011;2107;52.306;10.484;2023-07-13T06:20:57;0.90;;;0.90;;
4186;SDS011;2107;52.306;10.484;2023-07-13T06:23:24;0.80;;;0.80;;
4186;SDS011;2107;52.306;10.484;2023-07-13T06:25:51;0.80;;;0.80;;
4186;SDS011;2107;52.306;10.484;2023-07-13T06:28:18;1.00;;;1.00;;
4186;SDS011;2107;52.306;10.484;2023-07-13T06:30:45;0.80;;;0.80;;
4186;SDS011;2107;52.306;10.484;2023-07-13T06:33:13;0.90;;;0.90;;
4186;SDS011;2107;52.306;10.484;2023-07-13T06:35:40;0.97;;;0.97;;
4186;SDS011;2107;52.306;10.484;2023-07-13T06:38:07;0.90;;;0.90;;
4186;SDS011;2107;52.306;10.484;2023-07-13T06:40:34;1.00;;;1.00;;
4186;SDS011;2107;52.306;10.484;2023-07-13T06:43:01;1.00;;;1.00;;
4186;SDS011;2107;52.306;10.484;2023-07-13T06:45:27;1.00;;;1.00;;
4186;SDS011;2107;52.306;10.484;2023-07-13T06:47:54;1.10;;;1.10;;
4186;SDS011;2107;52.306;10.484;2023-07-13T06:50:22;0.90;;;0.90;;
4186;SDS011;2107;52.306;10.484;2023-07-13T06:52:49;1.00;;;1.00;;
4186;SDS011;2107;52.306;10.484;2023-07-13T06:55:17;0.90;;;0.90;;
4186;SDS011;2107;52.306;10.484;2023-07-13T06:57:44;0.90;;;0.90;;
4186;SDS011;2107;52.306;10.484;2023-07-13T07:00:11;1.00;;;1.00;;
4186;SDS011;2107;52.306;10.484;2023-07-13T07:02:39;1.00;;;1.00;;
4186;SDS011;2107;52.306;10.484;2023-07-13T07:05:06;0.90;;;0.90;;
4186;SDS011;2107;52.306;10.484;2023-07-13T07:07:34;1.10;;;1.10;;
4186;SDS011;2107;52.306;10.484;2023-07-13T07:10:01;0.97;;;0.97;;
4186;SDS011;2107;52.306;10.484;2023-07-13T07:12:29;1.00;;;1.00;;
4186;SDS011;2107;52.306;10.484;2023-07-13T07:14:56;1.10;;;1.10;;
4186;SDS011;2107;52.306;10.484;2023-07-13T07:17:23;1.10;;;1.10;;
4186;SDS011;2107;52.306;10.484;2023-07-13T07:19:50;1.00;;;1.00;;
4186;SDS011;2107;52.306;10.484;2023-07-13T07:22:18;1.10;;;1.10;;
4186;SDS011;2107;52.306;10.484;2023-07-13T07:24:47;1.10;;;1.10;;
4186;SDS011;2107;52.306;10.484;2023-07-13T07:27:14;1.00;;;1.00;;
4186;SDS011;2107;52.306;10.484;2023-07-13T07:29:40;1.20;;;1.20;;
4186;SDS011;2107;52.306;10.484;2023-07-13T07:32:07;1.00;;;1.00;;
4186;SDS011;2107;52.306;10.484;2023-07-13T07:34:34;1.30;;;1.30;;
4186;SDS011;2107;52.306;10.484;2023-07-13T07:37:02;1.40;;;1.40;;
4186;SDS011;2107;52.306;10.484;2023-07-13T07:39:29;1.50;;;1.50;;
4186;SDS011;2107;52.306;10.484;2023-07-13T07:41:57;1.20;;;1.20;;
4186;SDS011;2107;52.306;10.484;2023-07-13T07:44:24;1.53;;;1.53;;
4186;SDS011;2107;52.306;10.484;2023-07-13T07:46:52;1.43;;;1.43;;
4186;SDS011;2107;52.306;10.484;2023-07-13T07:49:19;1.67;;;1.67;;
4186;SDS011;2107;52.306;10.484;2023-07-13T07:51:46;1.70;;;1.70;;
4186;SDS011;2107;52.306;10.484;2023-07-13T07:54:13;1.40;;;1.40;;
4186;SDS011;2107;52.306;10.484;2023-07-13T07:56:40;2.00;;;2.00;;
4186;SDS011;2107;52.306;10.484;2023-07-13T07:59:08;1.70;;;1.70;;
4186;SDS011;2107;52.306;10.484;2023-07-13T08:01:35;1.80;;;1.80;;
4186;SDS011;2107;52.306;10.484;2023-07-13T08:04:01;1.70;;;1.70;;
4186;SDS011;2107;52.306;10.484;2023-07-13T08:06:28;1.30;;;1.30;;
4186;SDS011;2107;52.306;10.484;2023-07-13T08:08:58;1.47;;;1.47;;
4186;SDS011;2107;52.306;10.484;2023-07-13T08:11:26;1.67;;;1.67;;
4186;SDS011;2107;52.306;10.484;2023-07-13T08:13:53;1.30;;;1.30;;
4186;SDS011;2107;52.306;10.484;2023-07-13T08:16:21;1.50;;;1.50;;
4186;SDS011;2107;52.306;10.484;2023-07-13T08:18:49;1.20;;;1.20;;
4186;SDS011;2107;52.306;10.484;2023-07-13T08:21:16;1.30;;;1.30;;
4186;SDS011;2107;52.306;10.484;2023-07-13T08:23:44;1.10;;;1.10;;
4186;SDS011;2107;52.306;10.484;2023-07-13T08:26:11;1.33;;;1.33;;
4186;SDS011;2107;52.306;10.484;2023-07-13T08:28:39;1.40;;;1.40;;
4186;SDS011;2107;52.306;10.484;2023-07-13T08:31:07;1.20;;;1.20;;
4186;SDS011;2107;52.306;10.484;2023-07-13T08:33:36;1.10;;;1.10;;
4186;SDS011;2107;52.306;10.484;2023-07-13T08:36:03;1.47;;;1.47;;
4186;SDS011;2107;52.306;10.484;2023-07-13T08:38:30;1.40;;;1.40;;
4186;SDS011;2107;52.306;10.484;2023-07-13T08:40:57;1.20;;;1.20;;
4186;SDS011;2107;52.306;10.484;2023-07-13T08:43:25;1.30;;;1.30;;
4186;SDS011;2107;52.306;10.484;2023-07-13T08:45:55;1.17;;;1.17;;
4186;SDS011;2107;52.306;10.484;2023-07-13T08:48:27;1.00;;;1.00;;
4186;SDS011;2107;52.306;10.484;2023-07-13T08:50:58;1.00;;;1.00;;
4186;SDS011;2107;52.306;10.484;2023-07-13T08:53:33;1.40;;;1.40;;
4186;SDS011;2107;52.306;10.484;2023-07-13T08:56:02;0.90;;;0.90;;
4186;SDS011;2107;52.306;10.484;2023-07-13T08:58:31;1.30;;;1.30;;
4186;SDS011;2107;52.306;10.484;2023-07-13T09:01:02;1.30;;;1.30;;
4186;SDS011;2107;52.306;10.484;2023-07-13T09:03:37;1.20;;;1.20;;
4186;SDS011;2107;52.306;10.484;2023-07-13T09:06:09;1.30;;;1.30;;
4186;SDS011;2107;52.306;10.484;2023-07-13T09:08:42;1.30;;;1.30;;
4186;SDS011;2107;52.306;10.484;2023-07-13T09:11:23;1.20;;;1.20;;
4186;SDS011;2107;52.306;10.484;2023-07-13T09:14:03;1.30;;;1.30;;
4186;SDS011;2107;52.306;10.484;2023-07-13T09:16:38;1.30;;;1.30;;
4186;SDS011;2107;52.306;10.484;2023-07-13T09:19:07;1.20;;;1.20;;
4186;SDS011;2107;52.306;10.484;2023-07-13T09:21:48;1.40;;;1.40;;
4186;SDS011;2107;52.306;10.484;2023-07-13T09:24:22;1.23;;;1.23;;
4186;SDS011;2107;52.306;10.484;2023-07-13T09:26:55;1.30;;;1.30;;
4186;SDS011;2107;52.306;10.484;2023-07-13T09:29:26;1.10;;;1.10;;
4186;SDS011;2107;52.306;10.484;2023-07-13T09:31:55;1.10;;;1.10;;
4186;SDS011;2107;52.306;10.484;2023-07-13T09:34:27;1.00;;;1.00;;
4186;SDS011;2107;52.306;10.484;2023-07-13T09:36:57;1.30;;;1.30;;
4186;SDS011;2107;52.306;10.484;2023-07-13T09:39:25;1.13;;;1.13;;
4186;SDS011;2107;52.306;10.484;2023-07-13T09:41:55;1.00;;;1.00;;
4186;SDS011;2107;52.306;10.484;2023-07-13T09:44:28;1.20;;;1.20;;
4186;SDS011;2107;52.306;10.484;2023-07-13T09:46:57;1.30;;;1.30;;
4186;SDS011;2107;52.306;10.484;2023-07-13T09:49:24;1.30;;;1.30;;
4186;SDS011;2107;52.306;10.484;2023-07-13T09:51:58;1.20;;;1.20;;
4186;SDS011;2107;52.306;10.484;2023-07-13T09:54:27;1.20;;;1.20;;
4186;SDS011;2107;52.306;10.484;2023-07-13T09:56:54;0.60;;;0.60;;
4186;SDS011;2107;52.306;10.484;2023-07-13T09:59:22;0.70;;;0.70;;
4186;SDS011;2107;52.306;10.484;2023-07-13T10:01:50;0.60;;;0.60;;
4186;SDS011;2107;52.306;10.484;2023-07-13T10:04:18;0.73;;;0.73;;
4186;SDS011;2107;52.306;10.484;2023-07-13T10:06:46;0.83;;;0.83;;
4186;SDS011;2107;52.306;10.484;2023-07-13T10:09:16;0.80;;;0.80;;
4186;SDS011;2107;52.306;10.484;2023-07-13T10:11:44;1.10;;;1.10;;
4186;SDS011;2107;52.306;10.484;2023-07-13T10:14:12;1.10;;;1.10;;
4186;SDS011;2107;52.306;10.484;2023-07-13T10:16:41;1.10;;;1.10;;
4186;SDS011;2107;52.306;10.484;2023-07-13T10:19:11;0.90;;;0.90;;
4186;SDS011;2107;52.306;10.484;2023-07-13T10:21:43;0.90;;;0.90;;
4186;SDS011;2107;52.306;10.484;2023-07-13T10:24:17;0.90;;;0.90;;
4186;SDS011;2107;52.306;10.484;2023-07-13T10:26:48;0.80;;;0.80;;
4186;SDS011;2107;52.306;10.484;2023-07-13T10:29:20;0.90;;;0.90;;
4186;SDS011;2107;52.306;10.484;2023-07-13T10:31:49;1.00;;;1.00;;
4186;SDS011;2107;52.306;10.484;2023-07-13T10:34:17;0.70;;;0.70;;
4186;SDS011;2107;52.306;10.484;2023-07-13T10:36:45;1.10;;;1.10;;
4186;SDS011;2107;52.306;10.484;2023-07-13T10:39:14;0.90;;;0.90;;
4186;SDS011;2107;52.306;10.484;2023-07-13T10:41:45;0.87;;;0.87;;
4186;SDS011;2107;52.306;10.484;2023-07-13T10:44:20;1.00;;;1.00;;
4186;SDS011;2107;52.306;10.484;2023-07-13T10:46:51;0.97;;;0.97;;
4186;SDS011;2107;52.306;10.484;2023-07-13T10:49:20;1.10;;;1.10;;
4186;SDS011;2107;52.306;10.484;2023-07-13T10:51:48;1.10;;;1.10;;
4186;SDS011;2107;52.306;10.484;2023-07-13T10:54:19;1.10;;;1.10;;
4186;SDS011;2107;52.306;10.484;2023-07-13T10:56:52;0.97;;;0.97;;
4186;SDS011;2107;52.306;10.484;2023-07-13T10:59:32;1.00;;;1.00;;
4186;SDS011;2107;52.306;10.484;2023-07-13T11:02:06;0.90;;;0.90;;
4186;SDS011;2107;52.306;10.484;2023-07-13T11:04:49;1.00;;;1.00;;
4186;SDS011;2107;52.306;10.484;2023-07-13T11:07:21;1.20;;;1.20;;
4186;SDS011;2107;52.306;10.484;2023-07-13T11:09:51;1.40;;;1.40;;
4186;SDS011;2107;52.306;10.484;2023-07-13T11:12:27;1.00;;;1.00;;
4186;SDS011;2107;52.306;10.484;2023-07-13T11:15:26;1.23;;;1.23;;
4186;SDS011;2107;52.306;10.484;2023-07-13T11:17:56;1.10;;;1.10;;
4186;SDS011;2107;52.306;10.484;2023-07-13T11:20:32;1.20;;;1.20;;
4186;SDS011;2107;52.306;10.484;2023-07-13T11:23:09;1.10;;;1.10;;
4186;SDS011;2107;52.306;10.484;2023-07-13T11:25:55;1.00;;;1.00;;
4186;SDS011;2107;52.306;10.484;2023-07-13T11:28:22;1.10;;;1.10;;
4186;SDS011;2107;52.306;10.484;2023-07-13T11:31:11;1.20;;;1.20;;
4186;SDS011;2107;52.306;10.484;2023-07-13T11:33:49;1.10;;;1.10;;
4186;SDS011;2107;52.306;10.484;2023-07-13T11:36:24;1.50;;;1.50;;
4186;SDS011;2107;52.306;10.484;2023-07-13T11:38:59;1.00;;;1.00;;
4186;SDS011;2107;52.306;10.484;2023-07-13T11:41:30;1.20;;;1.20;;
4186;SDS011;2107;52.306;10.484;2023-07-13T11:44:07;1.10;;;1.10;;
4186;SDS011;2107;52.306;10.484;2023-07-13T11:46:38;1.30;;;1.30;;
4186;SDS011;2107;52.306;10.484;2023-07-13T11:49:11;1.80;;;1.80;;
4186;SDS011;2107;52.306;10.484;2023-07-13T11:51:41;1.70;;;1.70;;
4186;SDS011;2107;52.306;10.484;2023-07-13T11:54:14;1.80;;;1.80;;
4186;SDS011;2107;52.306;10.484;2023-07-13T11:56:49;1.80;;;1.80;;
4186;SDS011;2107;52.306;10.484;2023-07-13T11:59:16;1.60;;;1.60;;
4186;SDS011;2107;52.306;10.484;2023-07-13T12:01:47;1.40;;;1.40;;
4186;SDS011;2107;52.306;10.484;2023-07-13T12:04:19;1.70;;;1.70;;
4186;SDS011;2107;52.306;10.484;2023-07-13T12:06:54;1.63;;;1.63;;
4186;SDS011;2107;52.306;10.484;2023-07-13T12:09:21;1.90;;;1.90;;
4186;SDS011;2107;52.306;10.484;2023-07-13T12:11:51;1.50;;;1.50;;
4186;SDS011;2107;52.306;10.484;2023-07-13T12:14:19;1.60;;;1.60;;
4186;SDS011;2107;52.306;10.484;2023-07-13T12:16:49;1.60;;;1.60;;
4186;SDS011;2107;52.306;10.484;2023-07-13T12:19:17;1.40;;;1.40;;
4186;SDS011;2107;52.306;10.484;2023-07-13T12:21:46;1.30;;;1.30;;
4186;SDS011;2107;52.306;10.484;2023-07-13T12:24:14;1.43;;;1.43;;
4186;SDS011;2107;52.306;10.484;2023-07-13T12:26:42;1.20;;;1.20;;
4186;SDS011;2107;52.306;10.484;2023-07-13T12:29:13;1.40;;;1.40;;
4186;SDS011;2107;52.306;10.484;2023-07-13T12:31:43;1.10;;;1.10;;
4186;SDS011;2107;52.306;10.484;2023-07-13T12:34:12;1.30;;;1.30;;
4186;SDS011;2107;52.306;10.484;2023-07-13T12:36:41;1.50;;;1.50;;
4186;SDS011;2107;52.306;10.484;2023-07-13T12:39:15;2.00;;;2.00;;
4186;SDS011;2107;52.306;10.484;2023-07-13T12:41:43;1.70;;;1.70;;
4186;SDS011;2107;52.306;10.484;2023-07-13T12:44:13;1.90;;;1.90;;
4186;SDS011;2107;52.306;10.484;2023-07-13T12:46:50;2.00;;;2.00;;
4186;SDS011;2107;52.306;10.484;2023-07-13T12:49:24;2.03;;;2.03;;
4186;SDS011;2107;52.306;10.484;2023-07-13T12:51:58;1.60;;;1.60;;
4186;SDS011;2107;52.306;10.484;2023-07-13T12:54:26;1.53;;;1.53;;
4186;SDS011;2107;52.306;10.484;2023-07-13T12:56:54;1.50;;;1.50;;
4186;SDS011;2107;52.306;10.484;2023-07-13T12:59:26;1.73;;;1.73;;
4186;SDS011;2107;52.306;10.484;2023-07-13T13:01:58;1.50;;;1.50;;
4186;SDS011;2107;52.306;10.484;2023-07-13T13:04:25;2.00;;;2.00;;
4186;SDS011;2107;52.306;10.484;2023-07-13T13:07:00;1.50;;;1.50;;
4186;SDS011;2107;52.306;10.484;2023-07-13T13:09:29;1.30;;;1.30;;
4186;SDS011;2107;52.306;10.484;2023-07-13T13:11:55;1.33;;;1.33;;
4186;SDS011;2107;52.306;10.484;2023-07-13T13:14:22;1.63;;;1.63;;
4186;SDS011;2107;52.306;10.484;2023-07-13T13:16:51;1.70;;;1.70;;
4186;SDS011;2107;52.306;10.484;2023-07-13T13:19:20;1.60;;;1.60;;
4186;SDS011;2107;52.306;10.484;2023-07-13T13:21:49;1.93;;;1.93;;
4186;SDS011;2107;52.306;10.484;2023-07-13T13:24:18;1.67;;;1.67;;
4186;SDS011;2107;52.306;10.484;2023-07-13T13:26:46;2.10;;;2.10;;
4186;SDS011;2107;52.306;10.484;2023-07-13T13:29:15;1.70;;;1.70;;
4186;SDS011;2107;52.306;10.484;2023-07-13T13:31:45;1.90;;;1.90;;
4186;SDS011;2107;52.306;10.484;2023-07-13T13:34:13;1.50;;;1.50;;
4186;SDS011;2107;52.306;10.484;2023-07-13T13:36:42;1.60;;;1.60;;
4186;SDS011;2107;52.306;10.484;2023-07-13T13:39:16;2.03;;;2.03;;
4186;SDS011;2107;52.306;10.484;2023-07-13T13:41:46;2.30;;;2.30;;
4186;SDS011;2107;52.306;10.484;2023-07-13T13:44:14;1.80;;;1.80;;
4186;SDS011;2107;52.306;10.484;2023-07-13T13:46:42;1.50;;;1.50;;
4186;SDS011;2107;52.306;10.484;2023-07-13T13:49:13;1.70;;;1.70;;
4186;SDS011;2107;52.306;10.484;2023-07-13T13:51:42;1.90;;;1.90;;
4186;SDS011;2107;52.306;10.484;2023-07-13T13:54:10;1.50;;;1.50;;
4186;SDS011;2107;52.306;10.484;2023-07-13T13:56:41;1.57;;;1.57;;
4186;SDS011;2107;52.306;10.484;2023-07-13T13:59:08;1.83;;;1.83;;
4186;SDS011;2107;52.306;10.484;2023-07-13T14:01:35;1.60;;;1.60;;
4186;SDS011;2107;52.306;10.484;2023-07-13T14:04:05;1.40;;;1.40;;
4186;SDS011;2107;52.306;10.484;2023-07-13T14:06:33;1.30;;;1.30;;
4186;SDS011;2107;52.306;10.484;2023-07-13T14:09:00;1.20;;;1.20;;
4186;SDS011;2107;52.306;10.484;2023-07-13T14:11:27;1.30;;;1.30;;
4186;SDS011;2107;52.306;10.484;2023-07-13T14:13:57;2.00;;;2.00;;
4186;SDS011;2107;52.306;10.484;2023-07-13T14:16:28;5.20;;;5.20;;
4186;SDS011;2107;52.306;10.484;2023-07-13T14:18:57;5.90;;;5.90;;
4186;SDS011;2107;52.306;10.484;2023-07-13T14:21:27;7.83;;;7.83;;
4186;SDS011;2107;52.306;10.484;2023-07-13T14:23:54;3.43;;;3.43;;
4186;SDS011;2107;52.306;10.484;2023-07-13T14:26:22;2.10;;;2.10;;
4186;SDS011;2107;52.306;10.484;2023-07-13T14:28:51;1.40;;;1.40;;
4186;SDS011;2107;52.306;10.484;2023-07-13T14:31:20;1.80;;;1.80;;
4186;SDS011;2107;52.306;10.484;2023-07-13T14:33:48;2.40;;;2.40;;
4186;SDS011;2107;52.306;10.484;2023-07-13T14:36:19;2.40;;;2.40;;
4186;SDS011;2107;52.306;10.484;2023-07-13T14:38:54;2.40;;;2.40;;
4186;SDS011;2107;52.306;10.484;2023-07-13T14:41:21;2.30;;;2.30;;
4186;SDS011;2107;52.306;10.484;2023-07-13T14:43:48;2.87;;;2.87;;
4186;SDS011;2107;52.306;10.484;2023-07-13T14:46:22;1.80;;;1.80;;
4186;SDS011;2107;52.306;10.484;2023-07-13T14:48:54;1.60;;;1.60;;
4186;SDS011;2107;52.306;10.484;2023-07-13T14:51:30;1.50;;;1.50;;
4186;SDS011;2107;52.306;10.484;2023-07-13T14:54:00;2.00;;;2.00;;
4186;SDS011;2107;52.306;10.484;2023-07-13T14:56:28;3.30;;;3.30;;
4186;SDS011;2107;52.306;10.484;2023-07-13T14:58:55;3.53;;;3.53;;
4186;SDS011;2107;52.306;10.484;2023-07-13T15:01:22;3.50;;;3.50;;
4186;SDS011;2107;52.306;10.484;2023-07-13T15:03:50;3.80;;;3.80;;
4186;SDS011;2107;52.306;10.484;2023-07-13T15:06:18;4.33;;;4.33;;
4186;SDS011;2107;52.306;10.484;2023-07-13T15:08:47;4.63;;;4.63;;
4186;SDS011;2107;52.306;10.484;2023-07-13T15:11:15;3.90;;;3.90;;
4186;SDS011;2107;52.306;10.484;2023-07-13T15:13:42;4.43;;;4.43;;
4186;SDS011;2107;52.306;10.484;2023-07-13T15:16:13;4.00;;;4.00;;